createdAt,value
2023-05-18T05:15:35.728Z,9.80
2023-05-18T05:20:29.263Z,10.00
2023-05-18T05:25:22.925Z,10.20
2023-05-18T05:44:56.857Z,10.70
2023-05-18T05:49:52.427Z,10.90
2023-05-18T05:54:45.998Z,11.00
2023-05-18T05:59:39.509Z,11.30
2023-05-18T06:04:34.804Z,11.50
2023-05-18T06:09:28.722Z,11.60
2023-05-18T06:14:22.947Z,11.90
2023-05-18T06:19:17.703Z,12.10
2023-05-18T06:24:13.422Z,12.20
2023-05-18T06:29:27.242Z,12.50
2023-05-18T06:34:47.438Z,12.80
2023-05-18T06:39:42.358Z,13.10
2023-05-18T06:44:36.424Z,13.40
2023-05-18T06:49:36.798Z,13.70
2023-05-18T06:54:30.839Z,13.90
2023-05-18T06:59:26.903Z,14.10
2023-05-18T07:04:20.791Z,14.20
2023-05-18T07:09:14.230Z,14.40
2023-05-18T07:14:07.725Z,14.70
2023-05-18T07:19:02.904Z,15.00
2023-05-18T07:23:56.356Z,15.40
2023-05-18T07:28:51.392Z,15.60
2023-05-18T07:33:46.290Z,15.60
2023-05-18T07:38:41.205Z,15.60
2023-05-18T07:43:35.075Z,15.60
2023-05-18T07:48:28.486Z,15.70
2023-05-18T07:53:21.848Z,15.80
2023-05-18T07:58:16.563Z,16.00
2023-05-18T08:03:10.001Z,15.90
2023-05-18T08:08:06.614Z,16.00
2023-05-18T08:13:00.506Z,16.10
2023-05-18T08:17:57.195Z,16.20
2023-05-18T08:22:50.688Z,16.60
2023-05-18T08:27:44.224Z,16.80
2023-05-18T08:32:38.084Z,16.80
2023-05-18T08:37:32.963Z,16.60
2023-05-18T08:42:48.607Z,16.60
2023-05-18T08:47:43.612Z,16.70
2023-05-18T08:52:41.582Z,16.90
2023-05-18T08:57:37.219Z,16.70
2023-05-18T09:02:31.189Z,17.00
2023-05-18T09:07:25.286Z,17.40
2023-05-18T09:12:24.634Z,17.90
2023-05-18T09:17:18.302Z,18.00
2023-05-18T09:22:11.827Z,17.90
2023-05-18T09:27:06.260Z,18.40
2023-05-18T09:32:04.627Z,18.50
2023-05-18T09:36:58.499Z,18.00
2023-05-18T09:41:57.252Z,18.00
2023-05-18T09:46:56.836Z,18.20
2023-05-18T09:51:51.703Z,18.30
2023-05-18T09:56:55.316Z,18.40
2023-05-18T10:02:02.227Z,18.70
2023-05-18T10:06:57.624Z,18.90
2023-05-18T10:11:51.900Z,18.60
2023-05-18T10:16:46.162Z,18.80
2023-05-18T10:21:40.215Z,18.90
2023-05-18T10:26:39.846Z,18.90
2023-05-18T10:31:37.420Z,18.80
2023-05-18T10:36:32.925Z,19.30
2023-05-18T10:41:27.751Z,19.50
2023-05-18T10:46:27.147Z,19.80
2023-05-18T10:51:21.528Z,20.10
2023-05-18T10:56:16.782Z,20.40
2023-05-18T11:01:12.707Z,20.50
2023-05-18T11:06:10.750Z,20.60
2023-05-18T11:11:07.553Z,20.30
2023-05-18T11:16:06.676Z,20.30
2023-05-18T11:21:01.677Z,20.40
2023-05-18T11:25:56.852Z,20.60
2023-05-18T11:30:52.242Z,20.40
2023-05-18T11:36:02.297Z,20.50
2023-05-18T11:41:00.926Z,20.70
2023-05-18T11:45:56.663Z,21.50
2023-05-18T11:50:55.007Z,21.60
2023-05-18T11:55:48.439Z,21.50
2023-05-18T12:00:43.342Z,21.10
2023-05-18T12:05:37.612Z,20.60
2023-05-18T12:10:31.441Z,19.80
2023-05-18T12:15:25.810Z,19.70
2023-05-18T12:20:21.551Z,19.70
2023-05-18T12:25:14.981Z,19.80
2023-05-18T12:30:12.016Z,19.80
2023-05-18T12:35:06.196Z,19.90
2023-05-18T12:40:02.037Z,19.80
2023-05-18T12:44:55.641Z,19.80
2023-05-18T12:49:50.752Z,19.80
2023-05-18T12:54:55.136Z,19.80
2023-05-18T12:59:53.498Z,19.60
2023-05-18T13:04:46.916Z,19.40
2023-05-18T13:09:46.915Z,19.30
2023-05-18T13:14:41.055Z,19.30
2023-05-18T13:19:37.900Z,19.30
2023-05-18T13:24:32.111Z,19.30
2023-05-18T13:29:25.486Z,19.30
2023-05-18T13:34:18.850Z,19.40
2023-05-18T13:39:13.703Z,19.50
2023-05-18T13:44:07.289Z,19.70
2023-05-18T13:49:00.684Z,19.70
2023-05-18T13:53:54.049Z,19.60
2023-05-18T13:58:50.259Z,19.40
2023-05-18T14:03:43.733Z,19.20
2023-05-18T14:08:37.250Z,19.00
2023-05-18T14:13:30.762Z,18.70
2023-05-18T14:18:25.545Z,18.40
2023-05-18T14:23:18.973Z,18.20
2023-05-18T14:28:12.371Z,18.00
2023-05-18T14:33:06.051Z,17.90
2023-05-18T14:38:00.992Z,17.90
2023-05-18T14:42:54.347Z,17.80
2023-05-18T14:47:48.151Z,17.80
2023-05-18T14:52:41.618Z,17.70
2023-05-18T14:57:36.372Z,17.60
2023-05-18T15:02:29.845Z,17.70
2023-05-18T15:07:23.690Z,17.80
2023-05-18T15:12:17.835Z,17.70
2023-05-18T15:17:13.705Z,17.70
2023-05-18T15:22:07.290Z,17.60
2023-05-18T15:27:00.935Z,17.50
2023-05-18T15:31:55.375Z,17.50
2023-05-18T15:36:50.306Z,17.30
2023-05-18T15:41:43.804Z,17.20
2023-05-18T15:46:37.269Z,17.10
2023-05-18T15:51:31.069Z,17.00
2023-05-18T15:56:25.917Z,17.00
2023-05-18T16:01:19.477Z,16.90
2023-05-18T16:06:13.038Z,16.80
2023-05-18T16:11:07.196Z,16.80
2023-05-18T16:16:02.271Z,16.70
2023-05-18T16:20:56.066Z,16.60
2023-05-18T16:25:49.433Z,16.60
2023-05-18T16:30:42.827Z,16.50
2023-05-18T16:35:37.748Z,16.50
2023-05-18T16:40:31.246Z,16.40
2023-05-18T16:45:26.408Z,16.30
2023-05-18T16:50:20.523Z,16.30
2023-05-18T16:55:15.348Z,16.10
2023-05-18T17:00:11.543Z,16.00
2023-05-18T17:05:05.130Z,16.00
2023-05-18T17:09:58.549Z,16.00
2023-05-18T17:14:53.426Z,15.80
2023-05-18T17:19:46.796Z,15.80
2023-05-18T17:24:40.391Z,15.70
2023-05-18T17:29:33.818Z,15.60
2023-05-18T17:34:30.651Z,15.50
2023-05-18T17:39:24.052Z,15.40
2023-05-18T17:44:17.415Z,15.30
2023-05-18T17:49:10.810Z,15.30
2023-05-18T17:54:05.876Z,15.30
2023-05-18T17:58:59.721Z,15.20
2023-05-18T18:03:53.233Z,15.10
2023-05-18T18:08:46.653Z,15.00
2023-05-18T18:13:41.514Z,14.90
2023-05-18T18:18:36.624Z,14.80
2023-05-18T18:23:30.060Z,14.80
2023-05-18T18:28:23.467Z,14.70
2023-05-18T18:33:19.893Z,14.50
2023-05-18T18:38:14.043Z,14.40
2023-05-18T18:43:07.942Z,14.30
2023-05-18T18:48:02.499Z,14.30
2023-05-18T18:52:57.292Z,14.20
2023-05-18T18:57:50.969Z,14.10
2023-05-18T19:02:44.543Z,14.10
2023-05-18T19:07:38.269Z,14.00
2023-05-18T19:12:33.763Z,13.90
2023-05-18T19:17:27.236Z,13.80
2023-05-18T19:22:20.703Z,13.80
2023-05-18T19:27:14.157Z,13.70
2023-05-18T19:32:09.129Z,13.60
2023-05-18T19:37:02.486Z,13.50
2023-05-18T19:41:55.755Z,13.50
